• Join FlightAware (Why Join?)
  • Login
  • US Flag 
02:40PM EDT


 

Airport Tracker/Info


-or-


 

Live Flight TrackerFlight Track Log ✈ RPA3457 ✈ 24-Apr-2013 ✈ KBTV - KDCA

Flight Track Log - Related Links

Times and Time Zones

All times are in EDT time to prevent confusion due to time zone crossing. See the RPA3457 flight status page for this flight to view local times or setup timezone preferences in your user account.

Time Position Orientation Groundspeed Altitude Reporting Facility
EDT Latitude Longitude Course Direction KTS MPH feet Rate Location/Type
07:55AM 44.3819 -73.1517 195° South 223 257 4,200  Level Boston Center
07:56AM 44.1650 -73.2632 195° South  Level FlightAware Approximate
07:56AM 44.3214 -73.1800 199° South 247 284 6,800  Level Boston Center
07:57AM 44.0638 -73.3009 194° South  Level FlightAware Approximate
07:57AM 44.2525 -73.2081 196° South 265 305 9,700  Level Boston Center
07:58AM 43.9620 -73.3349 194° South  Level FlightAware Approximate
07:58AM 44.1711 -73.2419 197° South 283 326 11,900  Level Boston Center
07:59AM 43.8606 -73.3711 195° South  Level FlightAware Approximate
07:59AM 44.0853 -73.2783 197° South 314 361 15,000  Level Boston Center
08:00AM 43.7595 -73.4090 195° South  Level FlightAware Approximate
08:00AM 44.0058 -73.3089 195° South 332 382 17,900  Level Boston Center
08:01AM 43.9161 -73.3450 196° South 337 388 20,200 1,860 Climbing Boston Center
08:02AM 43.8303 -73.3783 196° South 352 405 21,700 1,980 Climbing Boston Center
08:03AM 43.7175 -73.4225 196° South 370 426 24,200 2,100 Climbing Boston Center
08:04AM 43.6044 -73.4667 196° South 382 440 25,900 1,620 Climbing Boston Center
08:05AM 43.4978 -73.5078 196° South 389 448 27,500 1,020 Climbing Boston Center
08:06AM 43.3828 -73.5542 196° South 401 461 28,000 240 Climbing Boston Center
08:07AM 43.2678 -73.6006 196° South 422 486 28,000 480 Level Boston Center
08:08AM 43.1483 -73.6467 196° South 441 507 29,000 960 Climbing Boston Center
08:09AM 43.0394 -73.6928 197° South 441 507 30,000 480 Climbing Boston Center
08:10AM 42.9203 -73.7386 196° South 446 513 30,000  Level Boston Center
08:11AM 42.7989 -73.7842 195° South 446 513 30,000  Level Boston Center
08:12AM 42.6736 -73.7956 184° South 446 513 30,000  Level Boston Center
08:13AM 42.5342 -73.7756 174° South 453 521 30,000  Level Boston Center
08:14AM 42.4011 -73.7558 174° South 471 542 30,000  Level Boston Center
08:15AM 42.2700 -73.7364 174° South 476 548 30,000  Level Boston Center
08:16AM 42.1369 -73.7139 173° South 481 554 30,000  Level Boston Center
08:17AM 42.0058 -73.6944 174° South 481 554 30,000  Level Boston Center
08:18AM 41.8747 -73.6753 174° South 481 554 30,000  Level Boston Center
08:19AM 41.7417 -73.6531 173° South 481 554 30,000  Level Boston Center
08:20AM 41.6064 -73.6339 174° South 481 554 30,000  Level Boston Center
08:23AM 41.2517 -73.6467 182° South 440 506 30,000 -180 Level New York Center
08:24AM 41.1758 -73.7619 229° Southwest 401 461 29,500 -1,020 Descending New York Center
08:25AM 41.1061 -73.8800 232° Southwest 394 453 28,000 -780 Descending New York Center
08:26AM 41.0361 -74.0006 232° Southwest 413 475 28,000  Level New York Center
08:27AM 40.9664 -74.1181 232° Southwest 418 481 28,000  Level New York Center
08:28AM 40.8922 -74.2325 229° Southwest 418 481 28,000  Level New York Center
08:29AM 40.8219 -74.3494 232° Southwest 418 481 28,000  Level New York Center
08:30AM 40.7517 -74.4636 231° Southwest 413 475 28,000 -120 Level New York Center
08:31AM 40.6856 -74.5833 234° Southwest 413 475 27,800 -840 Descending New York Center
08:32AM 40.6397 -74.7119 245° Southwest 395 455 26,400 -1,440 Descending New York Center
08:33AM 40.5933 -74.8431 245° Southwest 395 455 25,000 -1,380 Descending New York Center
08:34AM 40.5536 -74.9719 248° West 395 455 23,700 -1,380 Descending New York Center
08:35AM 40.5033 -75.0944 242° Southwest 390 449 22,300 -900 Descending New York Center
08:36AM 40.4472 -75.2028 236° Southwest 371 427 22,000 -180 Descending New York Center
08:37AM 40.3953 -75.3083 237° Southwest 364 419 22,000  Level New York Center
08:38AM 40.3408 -75.4164 237° Southwest 358 412 22,000  Level New York Center
08:39AM 40.2789 -75.5103 229° Southwest 353 406 22,000  Level New York Center
08:40AM 40.1833 -75.5553 200° South 343 395 22,000  Level New York Center
08:41AM 40.0875 -75.6003 200° South 351 404 22,000  Level New York Center
08:42AM 39.9919 -75.6425 199° South 356 410 22,000 -240 Level New York Center
08:43AM 39.8994 -75.7144 211° Southwest 363 418 21,600 -840 Descending New York Center
08:44AM 39.8494 -75.8083 235° Southwest 336 387 20,400 -1,200 Descending New York Center
08:45AM 39.7997 -75.9022 235° Southwest 329 379 19,200 -1,200 Descending New York Center
08:46AM 39.7519 -75.9903 235° Southwest 310 357 18,000 -1,140 Descending New York Center
08:47AM 39.7064 -76.0789 236° Southwest 301 346 17,000 -1,140 Descending New York Center
08:48AM 39.6872 -76.1772 256° West 290 334 15,800 -1,320 Descending New York Center
08:50AM 39.6333 -76.3167 243° Southwest 290 334 13,700 -1,320 Descending Potomac TRACON
08:51AM 39.5667 -76.3667 210° Southwest 292 336 12,500 -900 Descending Potomac TRACON
08:51AM 39.5000 -76.4000 201° Southwest 284 327 12,000 -300 Descending Potomac TRACON
08:52AM 39.4167 -76.4500 205° Southwest 270 311 12,000 -120 Level Potomac TRACON
08:53AM 39.3667 -76.4833 207° Southwest 230 265 11,800 -540 Descending Potomac TRACON
08:54AM 39.3167 -76.5333 218° Southwest 227 261 11,000 -840 Descending Potomac TRACON
08:55AM 39.2667 -76.5667 207° Southwest 225 259 10,300 -600 Descending Potomac TRACON
08:56AM 39.2167 -76.6167 218° Southwest 228 262 10,000 -180 Descending Potomac TRACON
08:57AM 39.1667 -76.6667 218° Southwest 226 260 10,000  Level Potomac TRACON
08:58AM 39.1167 -76.7167 218° Southwest 223 257 10,000 -60 Level Potomac TRACON
08:59AM 39.0833 -76.7667 229° Southwest 222 255 9,900 -780 Descending Potomac TRACON
09:00AM 39.0333 -76.8167 218° Southwest 221 254 8,600 -960 Descending Potomac TRACON
09:01AM 39.0000 -76.8667 229° Southwest 177 204 8,100 -900 Descending Potomac TRACON
09:02AM 38.9667 -76.9167 229° Southwest 176 203 6,900 -1,080 Descending Potomac TRACON
09:03AM 38.9667 -76.9667 270° West 167 192 6,000 -480 Descending Potomac TRACON
09:04AM 38.9833 -77.0333 288° West 171 197 6,000 -360 Level Potomac TRACON
09:05AM 39.0167 -77.0667 322° Northwest 172 198 5,400 -540 Descending Potomac TRACON
09:06AM 39.0500 -77.1167 311° West 172 198 5,000 -360 Descending Potomac TRACON
09:07AM 39.0667 -77.1500 303° West 173 199 4,800 -600 Descending Potomac TRACON
09:08AM 39.0500 -77.2000 247° West 158 182 3,900 -900 Descending Potomac TRACON
09:09AM 39.0000 -77.2000 180° South 184 212 3,000 -600 Descending Potomac TRACON
09:10AM 38.9667 -77.1667 142° Southeast 184 212 2,800 -240 Descending Potomac TRACON